Centenario Forza — 3EXU5 — position and weather

sailwx.info

Track history (hours):
 
Tides and Currents Weather Stations Pressure Air Temp Water Temp Dewpoint Dewpoint Depression Visibility Wind Speed Wind Dir Waves Ship Positions

Centenario Forza

Last reported at 2017-Dec-25 04:30 UTC. Time now 2018-Jan-23 16:17 UTC.
Position N 36°16' E 014°52'.
Warning: this ship's position is 29 days out of date.

Length 190 m; draft 13 m.

Type: Ship. MMSI: 373138000.

Date/timePositionNaut miles runAvg speedWind from/ knotsBaromVisibWave heightAir tempDewpointWater temp
2017-Dec-25 04:30N 36°16' E 014°52'713.5
2017-Dec-25 04:00N 36°18' E 014°44'613.1
2017-Dec-25 03:30N 36°20' E 014°37'612.9
2017-Dec-25 03:00N 36°23' E 014°29'713.3
2017-Dec-25 02:30N 36°25' E 014°22'713.3
2017-Dec-25 02:00N 36°27' E 014°13'613.1
2017-Dec-25 01:30N 36°29' E 014°06'713.1
2017-Dec-25 01:00N 36°31' E 013°58'713.1
2017-Dec-25 00:30N 36°33' E 013°50'613.0
2017-Dec-25 00:00N 36°35' E 013°43'712.9
2017-Dec-24 23:29N 36°37' E 013°35'612.7
2017-Dec-24 23:00N 36°39' E 013°28'612.8
2017-Dec-24 22:30N 36°40' E 013°20'  
2017-Dec-22 01:30N 35°59' W 005°06'612.5
2017-Dec-22 01:00N 35°58' W 005°13'4 8.6
2017-Dec-22 00:31N 35°57' W 005°18'2 4.6
2017-Dec-22 00:00N 35°55' W 005°19'0 0.2
2017-Dec-21 23:30N 35°55' W 005°19'0 0.1
2017-Dec-21 23:00N 35°55' W 005°19'0 0.0
2017-Dec-21 22:30N 35°55' W 005°19'0 0.0
2017-Dec-21 22:00N 35°55' W 005°19'0 0.0
2017-Dec-21 21:30N 35°55' W 005°19'0 0.0
2017-Dec-21 21:00N 35°55' W 005°19'0 0.0
2017-Dec-21 20:30N 35°55' W 005°19'0 0.0
2017-Dec-21 20:00N 35°55' W 005°19'0 0.0
2017-Dec-21 19:30N 35°55' W 005°19'0 0.1
2017-Dec-21 19:00N 35°55' W 005°19'0 0.2
2017-Dec-21 18:30N 35°55' W 005°19'0 0.1
2017-Dec-21 18:00N 35°55' W 005°19'2 4.3
2017-Dec-21 17:30N 35°56' W 005°22'4 9.0
2017-Dec-21 17:00N 35°57' W 005°27'  
2017-Dec-18 03:31N 35°60' W 024°02'412.8
2017-Dec-18 03:13N 35°60' W 024°07'312.8
2017-Dec-18 02:57N 35°60' W 024°11'612.7
2017-Dec-18 02:30N 35°60' W 024°18'612.8
2017-Dec-18 02:01N 35°60' W 024°26'612.7
2017-Dec-18 01:30N 35°60' W 024°34'713.0
2017-Dec-18 01:00N 35°60' W 024°42'613.1
2017-Dec-18 00:31N 35°60' W 024°50'713.3
2017-Dec-18 00:00N 36°00' W 024°58'613.0
2017-Dec-17 23:30N 36°00' W 025°06'713.1
2017-Dec-17 23:01N 36°01' W 025°14'612.8
2017-Dec-17 22:31N 36°01' W 025°22'612.8
2017-Dec-17 22:00N 36°01' W 025°30'612.7
2017-Dec-17 21:30N 36°01' W 025°38'612.7
2017-Dec-17 21:01N 36°01' W 025°45'612.6
2017-Dec-17 20:30N 36°01' W 025°53'612.7
2017-Dec-17 20:01N 36°01' W 026°01'612.8
2017-Dec-17 19:31N 36°01' W 026°09'1112.6
2017-Dec-17 18:37N 36°02' W 026°23'4412.8
2017-Dec-17 15:12N 36°02' W 027°17'312.8
2017-Dec-17 15:00N 36°02' W 027°20'612.7
2017-Dec-17 14:31N 36°03' W 027°28'713.0
2017-Dec-17 13:58N 36°03' W 027°36'612.9
2017-Dec-17 13:30N 36°03' W 027°44'612.9
2017-Dec-17 13:00N 36°03' W 027°52'713.1
2017-Dec-17 12:30N 36°03' W 027°60'713.1
2017-Dec-17 11:59N 36°03' W 028°08'713.1
2017-Dec-17 11:25N 36°03' W 028°18'613.1
2017-Dec-17 10:56N 36°03' W 028°25'613.2
2017-Dec-17 10:28N 36°03' W 028°33'  
Track history (hours):
 
Tides and Currents Weather Stations Pressure Air Temp Water Temp Dewpoint Dewpoint Depression Visibility Wind Speed Wind Dir Waves Ship Positions

Centenario Forza

Last reported at 2017-Dec-25 04:30 UTC. Time now 2018-Jan-23 16:17 UTC.
Position N 36°16' E 014°52'.
Warning: this ship's position is 29 days out of date.

Length 190 m; draft 13 m.

Type: Ship. MMSI: 373138000.

Date/timePositionNaut miles runAvg speedWind from/ knotsBaromVisibWave heightAir tempDewpointWater temp
2017-Dec-25 04:30N 36°16' E 014°52'713.5
2017-Dec-25 04:00N 36°18' E 014°44'613.1
2017-Dec-25 03:30N 36°20' E 014°37'612.9
2017-Dec-25 03:00N 36°23' E 014°29'713.3
2017-Dec-25 02:30N 36°25' E 014°22'713.3
2017-Dec-25 02:00N 36°27' E 014°13'613.1
2017-Dec-25 01:30N 36°29' E 014°06'713.1
2017-Dec-25 01:00N 36°31' E 013°58'713.1
2017-Dec-25 00:30N 36°33' E 013°50'613.0
2017-Dec-25 00:00N 36°35' E 013°43'712.9
2017-Dec-24 23:29N 36°37' E 013°35'612.7
2017-Dec-24 23:00N 36°39' E 013°28'612.8
2017-Dec-24 22:30N 36°40' E 013°20'  
2017-Dec-22 01:30N 35°59' W 005°06'612.5
2017-Dec-22 01:00N 35°58' W 005°13'4 8.6
2017-Dec-22 00:31N 35°57' W 005°18'2 4.6
2017-Dec-22 00:00N 35°55' W 005°19'0 0.2
2017-Dec-21 23:30N 35°55' W 005°19'0 0.1
2017-Dec-21 23:00N 35°55' W 005°19'0 0.0
2017-Dec-21 22:30N 35°55' W 005°19'0 0.0
2017-Dec-21 22:00N 35°55' W 005°19'0 0.0
2017-Dec-21 21:30N 35°55' W 005°19'0 0.0
2017-Dec-21 21:00N 35°55' W 005°19'0 0.0
2017-Dec-21 20:30N 35°55' W 005°19'0 0.0
2017-Dec-21 20:00N 35°55' W 005°19'0 0.0
2017-Dec-21 19:30N 35°55' W 005°19'0 0.1
2017-Dec-21 19:00N 35°55' W 005°19'0 0.2
2017-Dec-21 18:30N 35°55' W 005°19'0 0.1
2017-Dec-21 18:00N 35°55' W 005°19'2 4.3
2017-Dec-21 17:30N 35°56' W 005°22'4 9.0
2017-Dec-21 17:00N 35°57' W 005°27'  
2017-Dec-18 03:31N 35°60' W 024°02'412.8
2017-Dec-18 03:13N 35°60' W 024°07'312.8
2017-Dec-18 02:57N 35°60' W 024°11'612.7
2017-Dec-18 02:30N 35°60' W 024°18'612.8
2017-Dec-18 02:01N 35°60' W 024°26'612.7
2017-Dec-18 01:30N 35°60' W 024°34'713.0
2017-Dec-18 01:00N 35°60' W 024°42'613.1
2017-Dec-18 00:31N 35°60' W 024°50'713.3
2017-Dec-18 00:00N 36°00' W 024°58'613.0
2017-Dec-17 23:30N 36°00' W 025°06'713.1
2017-Dec-17 23:01N 36°01' W 025°14'612.8
2017-Dec-17 22:31N 36°01' W 025°22'612.8
2017-Dec-17 22:00N 36°01' W 025°30'612.7
2017-Dec-17 21:30N 36°01' W 025°38'612.7
2017-Dec-17 21:01N 36°01' W 025°45'612.6
2017-Dec-17 20:30N 36°01' W 025°53'612.7
2017-Dec-17 20:01N 36°01' W 026°01'612.8
2017-Dec-17 19:31N 36°01' W 026°09'1112.6
2017-Dec-17 18:37N 36°02' W 026°23'4412.8
2017-Dec-17 15:12N 36°02' W 027°17'312.8
2017-Dec-17 15:00N 36°02' W 027°20'612.7
2017-Dec-17 14:31N 36°03' W 027°28'713.0
2017-Dec-17 13:58N 36°03' W 027°36'612.9
2017-Dec-17 13:30N 36°03' W 027°44'612.9
2017-Dec-17 13:00N 36°03' W 027°52'713.1
2017-Dec-17 12:30N 36°03' W 027°60'713.1
2017-Dec-17 11:59N 36°03' W 028°08'713.1
2017-Dec-17 11:25N 36°03' W 028°18'613.1
2017-Dec-17 10:56N 36°03' W 028°25'613.2
2017-Dec-17 10:28N 36°03' W 028°33'  

Dump ship's entire track history